createdAt,value
2019-01-06T00:02:43.149Z,5.40
2019-01-06T00:05:44.756Z,5.58
2019-01-06T00:08:40.439Z,5.15
2019-01-06T00:11:19.801Z,6.08
2019-01-06T00:14:12.903Z,5.55
2019-01-06T00:16:59.770Z,6.12
2019-01-06T00:19:45.350Z,7.28
2019-01-06T00:22:34.849Z,9.00
2019-01-06T00:25:12.241Z,6.60
2019-01-06T00:27:54.854Z,6.80
2019-01-06T00:30:40.580Z,6.83
2019-01-06T00:33:33.168Z,7.10
2019-01-06T00:36:18.579Z,6.67
2019-01-06T00:38:54.702Z,6.72
2019-01-06T00:41:50.626Z,5.15
2019-01-06T00:44:28.220Z,5.50
2019-01-06T00:47:14.153Z,6.45
2019-01-06T00:50:08.729Z,6.78
2019-01-06T00:52:58.074Z,6.00
2019-01-06T00:55:43.183Z,6.00
2019-01-06T00:58:28.955Z,7.40
2019-01-06T01:01:23.454Z,7.60
2019-01-06T01:04:09.028Z,8.83
2019-01-06T01:07:05.195Z,8.25
2019-01-06T01:09:51.313Z,8.28
2019-01-06T01:12:46.900Z,7.33
2019-01-06T01:15:32.313Z,9.60
2019-01-06T01:18:18.019Z,7.10
2019-01-06T01:21:04.948Z,8.05
2019-01-06T01:23:50.341Z,8.08
2019-01-06T01:26:36.172Z,8.88
2019-01-06T01:29:26.178Z,5.78
2019-01-06T01:32:31.407Z,6.05
2019-01-06T01:35:24.420Z,6.70
2019-01-06T01:38:09.768Z,6.15
2019-01-06T01:40:55.968Z,6.03
2019-01-06T01:43:46.043Z,6.15
2019-01-06T01:46:37.604Z,6.45
2019-01-06T01:49:36.591Z,5.62
2019-01-06T01:52:16.739Z,5.00
2019-01-06T01:55:02.313Z,5.45
2019-01-06T01:57:52.177Z,6.80
2019-01-06T02:00:40.527Z,6.47
2019-01-06T02:03:16.997Z,6.87
2019-01-06T02:06:22.197Z,5.47
2019-01-06T02:09:09.047Z,6.30
2019-01-06T02:11:58.579Z,5.10
2019-01-06T02:14:35.809Z,5.40
2019-01-06T02:17:22.665Z,5.42
2019-01-06T02:20:09.590Z,4.60
2019-01-06T02:22:58.969Z,4.97
2019-01-06T02:25:38.363Z,5.85
2019-01-06T02:28:37.019Z,5.47
2019-01-06T02:31:18.636Z,7.95
2019-01-06T02:34:05.593Z,4.65
2019-01-06T02:37:07.533Z,5.33
2019-01-06T02:40:00.241Z,4.25
2019-01-06T02:42:47.153Z,2.45
2019-01-06T02:45:32.677Z,3.87
2019-01-06T02:48:19.553Z,3.60
2019-01-06T02:50:57.033Z,4.62
2019-01-06T02:53:37.505Z,3.58
2019-01-06T02:56:30.447Z,4.70
2019-01-06T02:59:15.786Z,5.50
2019-01-06T03:02:04.410Z,4.95
2019-01-06T03:05:06.567Z,4.92
2019-01-06T03:07:53.529Z,5.00
2019-01-06T03:10:40.432Z,3.77
2019-01-06T03:13:25.715Z,4.22
2019-01-06T03:16:12.602Z,4.20
2019-01-06T03:19:02.761Z,5.75
2019-01-06T03:21:46.488Z,3.62
2019-01-06T03:24:31.707Z,3.95
2019-01-06T03:27:21.649Z,4.12
2019-01-06T03:30:06.846Z,3.98
2019-01-06T03:32:59.418Z,4.05
2019-01-06T03:35:52.183Z,4.33
2019-01-06T03:38:46.240Z,3.83
2019-01-06T03:41:31.658Z,4.90
2019-01-06T03:44:18.603Z,3.98
2019-01-06T03:47:04.374Z,4.95
2019-01-06T03:49:49.605Z,5.80
2019-01-06T03:52:36.547Z,4.00
2019-01-06T03:55:22.320Z,4.37
2019-01-06T03:58:07.697Z,3.30
2019-01-06T04:00:54.590Z,3.95
2019-01-06T04:03:39.677Z,3.90
2019-01-06T04:06:33.198Z,3.42
2019-01-06T04:09:10.591Z,3.50
2019-01-06T04:11:56.464Z,4.15
2019-01-06T04:14:42.210Z,2.90
2019-01-06T04:17:28.212Z,3.77
2019-01-06T04:20:18.141Z,1.45
2019-01-06T04:23:17.121Z,2.85
2019-01-06T04:26:15.848Z,1.50
2019-01-06T04:29:14.091Z,1.40
2019-01-06T04:32:01.018Z,1.60
2019-01-06T04:34:46.045Z,1.30
2019-01-06T04:37:41.756Z,1.00
2019-01-06T04:40:40.636Z,0.98
2019-01-06T04:43:26.177Z,1.02
2019-01-06T04:46:11.983Z,1.02
2019-01-06T04:48:57.179Z,0.88
2019-01-06T04:51:39.950Z,1.00
2019-01-06T04:54:32.701Z,0.98
2019-01-06T04:57:28.367Z,1.10
2019-01-06T05:00:21.082Z,1.47
2019-01-06T05:03:26.105Z,1.40
2019-01-06T05:06:18.803Z,1.60
2019-01-06T05:09:11.577Z,1.20
2019-01-06T05:11:53.146Z,1.77
2019-01-06T05:14:43.695Z,1.00
2019-01-06T05:17:36.876Z,1.90
2019-01-06T05:20:35.790Z,1.37
2019-01-06T05:23:22.616Z,1.72
2019-01-06T05:26:12.350Z,2.87
2019-01-06T05:28:59.237Z,1.10
2019-01-06T05:31:48.901Z,0.80
2019-01-06T05:34:50.945Z,0.90
2019-01-06T05:37:36.566Z,0.88
2019-01-06T05:40:29.714Z,0.60
2019-01-06T05:43:15.232Z,0.90
2019-01-06T05:46:09.456Z,1.55
2019-01-06T05:49:00.698Z,0.95
2019-01-06T05:51:44.448Z,1.32
2019-01-06T05:54:31.396Z,1.52
2019-01-06T05:57:18.336Z,1.20
2019-01-06T06:00:23.351Z,0.98
2019-01-06T06:03:16.056Z,1.20
2019-01-06T06:06:15.190Z,0.82
2019-01-06T06:09:02.026Z,0.68
2019-01-06T06:11:47.524Z,0.65
2019-01-06T06:14:40.774Z,1.40
2019-01-06T06:17:26.103Z,0.80
2019-01-06T06:20:11.205Z,0.70
2019-01-06T06:23:00.538Z,0.70
2019-01-06T06:25:45.822Z,0.62
2019-01-06T06:28:35.155Z,0.65
2019-01-06T06:31:24.767Z,0.80
2019-01-06T06:34:09.982Z,3.33
2019-01-06T06:37:06.399Z,1.05
2019-01-06T06:39:45.269Z,0.85
2019-01-06T06:42:32.148Z,1.07
2019-01-06T06:45:21.576Z,2.52
2019-01-06T06:48:21.440Z,1.95
2019-01-06T06:51:13.302Z,1.22
2019-01-06T06:54:12.458Z,1.47
2019-01-06T06:57:09.370Z,1.60
2019-01-06T07:00:13.106Z,1.22
2019-01-06T07:02:59.831Z,1.15
2019-01-06T07:06:02.086Z,1.00
2019-01-06T07:08:54.578Z,0.70
2019-01-06T07:11:41.391Z,0.70
2019-01-06T07:14:27.416Z,1.00
2019-01-06T07:17:52.893Z,0.88
2019-01-06T07:20:58.158Z,0.50
2019-01-06T07:23:43.761Z,9.65
2019-01-06T07:26:31.277Z,0.70
2019-01-06T07:29:18.198Z,1.60
2019-01-06T07:32:11.010Z,1.40
2019-01-06T07:34:57.919Z,1.95
2019-01-06T07:37:44.856Z,1.20
2019-01-06T07:40:31.677Z,1.10
2019-01-06T07:43:15.550Z,2.35
2019-01-06T07:46:03.561Z,1.57
2019-01-06T07:48:46.875Z,6.37
2019-01-06T07:51:42.626Z,4.03
2019-01-06T07:54:28.116Z,4.60
2019-01-06T07:57:09.679Z,4.65
2019-01-06T07:59:59.633Z,1.10
2019-01-06T08:02:45.632Z,1.40
2019-01-06T08:05:31.026Z,1.60
2019-01-06T08:08:18.359Z,1.62
2019-01-06T08:11:02.094Z,1.47
2019-01-06T08:13:48.985Z,1.65
2019-01-06T08:16:41.325Z,2.00
2019-01-06T08:19:14.289Z,1.47
2019-01-06T08:22:01.189Z,1.40
2019-01-06T08:24:52.405Z,1.82
2019-01-06T08:27:38.072Z,1.67
2019-01-06T08:30:33.629Z,1.85
2019-01-06T08:33:19.294Z,1.50
2019-01-06T08:36:04.375Z,2.33
2019-01-06T08:39:03.005Z,1.57
2019-01-06T08:41:48.516Z,2.60
2019-01-06T08:44:47.179Z,2.95
2019-01-06T08:47:32.524Z,3.47
2019-01-06T08:50:18.851Z,3.02
2019-01-06T08:52:57.726Z,1.85
2019-01-06T08:55:43.419Z,2.42
2019-01-06T08:58:29.148Z,2.80
2019-01-06T09:01:15.062Z,1.67
2019-01-06T09:04:02.082Z,2.12
2019-01-06T09:06:41.335Z,1.80
2019-01-06T09:09:26.434Z,2.42
2019-01-06T09:12:12.122Z,1.60
2019-01-06T09:14:57.931Z,2.60
2019-01-06T09:17:44.810Z,4.92
2019-01-06T09:20:31.480Z,1.60
2019-01-06T09:23:17.615Z,3.72
2019-01-06T09:26:04.035Z,2.42
2019-01-06T09:28:49.700Z,2.22
2019-01-06T09:31:30.145Z,1.40
2019-01-06T09:34:29.137Z,1.35
2019-01-06T09:37:16.135Z,1.00
2019-01-06T09:40:01.667Z,1.20
2019-01-06T09:42:54.319Z,1.40
2019-01-06T09:45:33.515Z,1.00
2019-01-06T09:48:20.463Z,2.00
2019-01-06T09:51:05.859Z,1.30
2019-01-06T09:54:01.844Z,1.57
2019-01-06T09:57:00.860Z,1.82
2019-01-06T10:00:02.909Z,1.70
2019-01-06T10:03:04.667Z,1.20
2019-01-06T10:05:50.184Z,2.72
2019-01-06T10:08:35.933Z,1.72
2019-01-06T10:11:24.849Z,1.42
2019-01-06T10:14:14.602Z,5.30
2019-01-06T10:16:58.323Z,4.00
2019-01-06T10:19:51.285Z,4.22
2019-01-06T10:22:39.105Z,2.37
2019-01-06T10:25:27.463Z,15.83
2019-01-06T10:28:14.384Z,9.15
2019-01-06T10:31:01.299Z,3.22
2019-01-06T10:33:47.002Z,35.38
2019-01-06T10:36:43.086Z,10.70
2019-01-06T10:39:28.689Z,8.85
2019-01-06T10:42:21.877Z,9.23
2019-01-06T10:45:05.872Z,3.65
2019-01-06T10:48:04.851Z,3.87
2019-01-06T10:51:03.717Z,10.45
2019-01-06T10:53:56.466Z,7.95
2019-01-06T10:57:01.489Z,4.08
2019-01-06T11:00:00.633Z,13.50
2019-01-06T11:02:56.777Z,6.05
2019-01-06T11:05:58.785Z,8.83
2019-01-06T11:08:39.887Z,14.35
2019-01-06T11:11:38.841Z,11.33
2019-01-06T11:14:31.596Z,30.60
2019-01-06T11:17:30.446Z,17.17
2019-01-06T11:20:23.342Z,2.55
2019-01-06T11:23:10.180Z,18.87
2019-01-06T11:25:55.962Z,7.20
2019-01-06T11:28:45.819Z,41.73
2019-01-06T11:31:31.170Z,50.52
2019-01-06T11:34:30.455Z,54.18
2019-01-06T11:37:16.162Z,50.17
2019-01-06T11:40:03.191Z,51.20
2019-01-06T11:42:59.688Z,45.65
2019-01-06T11:46:01.922Z,40.58
2019-01-06T11:48:47.481Z,48.95
2019-01-06T11:51:28.750Z,42.50
2019-01-06T11:54:16.288Z,39.30
2019-01-06T11:57:01.838Z,53.50
2019-01-06T11:59:51.816Z,47.23
2019-01-06T12:02:41.779Z,53.25
2019-01-06T12:05:20.719Z,46.70
2019-01-06T12:08:01.198Z,32.85
2019-01-06T12:10:59.381Z,49.98
2019-01-06T12:13:44.818Z,48.58
2019-01-06T12:16:38.114Z,49.10
2019-01-06T12:19:23.449Z,36.60
2019-01-06T12:22:10.414Z,13.68
2019-01-06T12:24:55.842Z,20.00
2019-01-06T12:27:31.983Z,44.25
2019-01-06T12:30:17.938Z,31.12
2019-01-06T12:33:17.284Z,33.70
2019-01-06T12:36:03.256Z,14.90
2019-01-06T12:38:48.035Z,6.10
2019-01-06T12:41:34.956Z,3.15
2019-01-06T12:44:20.783Z,2.08
2019-01-06T12:47:17.188Z,2.75
2019-01-06T12:50:03.046Z,3.05
2019-01-06T12:52:48.481Z,2.80
2019-01-06T12:55:35.804Z,16.17
2019-01-06T12:58:25.701Z,9.40
2019-01-06T13:01:12.746Z,5.30
2019-01-06T13:04:05.253Z,31.85
2019-01-06T13:06:52.273Z,15.90
2019-01-06T13:09:38.066Z,12.98
2019-01-06T13:12:23.844Z,23.65
2019-01-06T13:15:08.317Z,9.83
2019-01-06T13:17:54.659Z,9.93
2019-01-06T13:20:40.650Z,11.05
2019-01-06T13:23:30.790Z,24.70
2019-01-06T13:26:30.138Z,22.35
2019-01-06T13:29:16.318Z,32.90
2019-01-06T13:32:10.318Z,39.85
2019-01-06T13:35:14.368Z,32.30
2019-01-06T13:38:20.097Z,25.77
2019-01-06T13:41:07.162Z,53.38
2019-01-06T13:44:06.297Z,50.03
2019-01-06T13:46:51.794Z,53.73
2019-01-06T13:49:57.115Z,53.98
2019-01-06T13:52:53.128Z,53.90
2019-01-06T13:55:38.662Z,54.45
2019-01-06T13:58:24.964Z,54.73
2019-01-06T14:01:21.409Z,41.13
2019-01-06T14:04:07.295Z,56.20
2019-01-06T14:06:54.449Z,46.70
2019-01-06T14:09:40.231Z,53.10
2019-01-06T14:12:15.764Z,54.90
2019-01-06T14:15:08.296Z,55.83
2019-01-06T14:17:58.332Z,53.33
2019-01-06T14:20:43.953Z,52.43
2019-01-06T14:23:21.649Z,52.75
2019-01-06T14:26:26.954Z,47.50
2019-01-06T14:29:12.426Z,42.78
2019-01-06T14:32:02.460Z,46.68
2019-01-06T14:34:48.555Z,45.00
2019-01-06T14:37:34.345Z,59.95
2019-01-06T14:40:24.404Z,60.00
2019-01-06T14:43:09.904Z,56.65
2019-01-06T14:46:00.180Z,56.90
2019-01-06T14:49:05.206Z,49.53
2019-01-06T14:51:54.927Z,44.08
2019-01-06T14:54:55.669Z,54.83
2019-01-06T14:57:48.651Z,60.15
2019-01-06T15:00:34.030Z,59.45
2019-01-06T15:03:24.085Z,61.95
2019-01-06T15:06:16.044Z,59.65
2019-01-06T15:09:01.556Z,50.83
2019-01-06T15:11:48.664Z,52.58
2019-01-06T15:14:34.455Z,54.55
2019-01-06T15:17:39.745Z,60.28
2019-01-06T15:20:25.432Z,57.60
2019-01-06T15:23:10.936Z,45.85
2019-01-06T15:26:10.119Z,45.85
2019-01-06T15:29:03.338Z,39.85
2019-01-06T15:31:50.313Z,52.95
2019-01-06T15:34:40.009Z,48.28
2019-01-06T15:37:26.684Z,42.05
2019-01-06T15:40:12.408Z,39.80
2019-01-06T15:43:08.696Z,41.95
2019-01-06T15:46:01.767Z,49.48
2019-01-06T15:48:47.374Z,42.93
2019-01-06T15:51:35.623Z,46.18
2019-01-06T15:54:23.422Z,54.73
2019-01-06T15:57:09.005Z,54.20
2019-01-06T15:59:54.495Z,56.65
2019-01-06T16:02:53.733Z,58.78
2019-01-06T16:05:37.333Z,47.93
2019-01-06T16:08:31.958Z,38.90
2019-01-06T16:11:18.948Z,54.90
2019-01-06T16:14:04.828Z,40.88
2019-01-06T16:17:04.382Z,49.15
2019-01-06T16:20:00.174Z,45.25
2019-01-06T16:22:55.523Z,42.85
2019-01-06T16:25:52.426Z,54.20
2019-01-06T16:28:37.909Z,55.58
2019-01-06T16:31:23.774Z,55.15
2019-01-06T16:33:59.936Z,50.43
2019-01-06T16:36:55.696Z,51.88
2019-01-06T16:39:41.486Z,58.42
2019-01-06T16:42:34.908Z,53.52
2019-01-06T16:45:20.467Z,47.75
2019-01-06T16:48:10.676Z,39.18
2019-01-06T16:50:56.315Z,51.33
2019-01-06T16:53:46.309Z,52.58
2019-01-06T16:56:38.985Z,50.38
2019-01-06T16:59:34.722Z,56.83
2019-01-06T17:02:24.778Z,43.92
2019-01-06T17:05:27.083Z,49.20
2019-01-06T17:08:26.299Z,41.05
2019-01-06T17:11:22.288Z,60.65
2019-01-06T17:14:12.156Z,52.43
2019-01-06T17:16:58.795Z,50.60
2019-01-06T17:19:44.482Z,50.45
2019-01-06T17:22:30.111Z,67.97
2019-01-06T17:25:35.395Z,56.88
2019-01-06T17:28:22.375Z,54.03
2019-01-06T17:31:27.654Z,59.03
2019-01-06T17:34:13.157Z,58.90
2019-01-06T17:36:58.959Z,59.23
2019-01-06T17:39:38.253Z,48.98
2019-01-06T17:42:23.830Z,42.33
2019-01-06T17:45:10.818Z,41.45
2019-01-06T17:47:56.548Z,42.05
2019-01-06T17:50:42.439Z,45.40
2019-01-06T17:53:29.519Z,57.05
2019-01-06T17:56:22.423Z,49.00
2019-01-06T17:59:21.160Z,44.67
2019-01-06T18:02:17.030Z,42.67
2019-01-06T18:05:03.225Z,46.60
2019-01-06T18:07:47.646Z,46.15
2019-01-06T18:10:43.808Z,57.15
2019-01-06T18:13:30.724Z,52.20
2019-01-06T18:16:17.100Z,50.75
2019-01-06T18:19:04.130Z,53.48
2019-01-06T18:21:54.483Z,46.70
2019-01-06T18:24:40.408Z,56.88
2019-01-06T18:27:27.408Z,56.60
2019-01-06T18:30:13.029Z,58.38
2019-01-06T18:33:16.198Z,48.50
2019-01-06T18:36:12.426Z,45.90
2019-01-06T18:38:55.818Z,53.80
2019-01-06T18:41:36.881Z,44.08
2019-01-06T18:44:26.474Z,48.20
2019-01-06T18:47:12.267Z,45.95
2019-01-06T18:49:58.343Z,54.75
2019-01-06T18:52:45.335Z,57.30
2019-01-06T18:55:47.697Z,42.80
2019-01-06T18:58:33.714Z,32.95
2019-01-06T19:01:23.449Z,33.10
2019-01-06T19:04:17.400Z,32.38
2019-01-06T19:06:55.062Z,65.52
2019-01-06T19:09:45.383Z,47.13
2019-01-06T19:12:30.897Z,60.40
2019-01-06T19:15:16.827Z,54.42
2019-01-06T19:17:46.799Z,54.38
2019-01-06T19:20:32.530Z,58.80
2019-01-06T19:23:18.076Z,58.68
2019-01-06T19:26:01.422Z,44.53
2019-01-06T19:28:48.453Z,56.98
2019-01-06T19:31:33.997Z,45.23
2019-01-06T19:34:19.770Z,55.17
2019-01-06T19:37:25.612Z,56.77
2019-01-06T19:40:21.907Z,57.70
2019-01-06T19:43:07.552Z,53.30
2019-01-06T19:45:54.628Z,51.98
2019-01-06T19:48:44.675Z,37.40
2019-01-06T19:51:30.514Z,23.87
2019-01-06T19:54:16.168Z,15.72
2019-01-06T19:57:13.348Z,48.85
2019-01-06T20:00:02.416Z,61.42
2019-01-06T20:02:49.686Z,52.98
2019-01-06T20:05:45.692Z,43.00
2019-01-06T20:08:35.500Z,45.40
2019-01-06T20:11:38.151Z,52.67
2019-01-06T20:14:33.686Z,59.00
2019-01-06T20:17:19.542Z,51.33
2019-01-06T20:20:06.797Z,51.83
2019-01-06T20:22:53.785Z,55.05
2019-01-06T20:25:39.422Z,48.58
2019-01-06T20:28:25.404Z,53.83
2019-01-06T20:31:11.266Z,44.33
2019-01-06T20:34:13.529Z,53.10
2019-01-06T20:37:00.497Z,58.33
2019-01-06T20:39:46.404Z,50.23
2019-01-06T20:42:42.094Z,55.35
2019-01-06T20:45:34.950Z,53.17
2019-01-06T20:48:37.067Z,51.42
2019-01-06T20:51:26.199Z,50.83
2019-01-06T20:54:16.353Z,52.20
2019-01-06T20:57:01.718Z,46.40
2019-01-06T20:59:50.418Z,43.75
2019-01-06T21:02:40.398Z,52.27
2019-01-06T21:05:36.548Z,57.08
2019-01-06T21:08:35.841Z,43.90
2019-01-06T21:11:37.820Z,57.30
2019-01-06T21:14:33.154Z,39.13
2019-01-06T21:17:27.559Z,15.83
2019-01-06T21:20:11.993Z,22.10
2019-01-06T21:22:57.860Z,13.58
2019-01-06T21:25:43.725Z,9.40
2019-01-06T21:28:30.756Z,46.55
2019-01-06T21:31:20.555Z,44.18
2019-01-06T21:34:14.093Z,16.02
2019-01-06T21:37:15.825Z,32.50
2019-01-06T21:40:09.325Z,22.27
2019-01-06T21:42:59.960Z,9.40
2019-01-06T21:45:45.678Z,5.87
2019-01-06T21:48:45.030Z,20.10
2019-01-06T21:51:32.003Z,26.27
2019-01-06T21:54:17.648Z,18.57
2019-01-06T21:57:04.257Z,14.53
2019-01-06T21:59:43.323Z,11.70
2019-01-06T22:02:29.096Z,10.90
2019-01-06T22:05:20.378Z,10.90
2019-01-06T22:08:13.632Z,11.95
2019-01-06T22:11:00.612Z,12.70
2019-01-06T22:13:46.748Z,16.87
2019-01-06T22:16:33.712Z,15.48
2019-01-06T22:19:32.686Z,17.20
2019-01-06T22:22:32.360Z,13.88
2019-01-06T22:25:37.449Z,16.75
2019-01-06T22:28:24.390Z,12.58
2019-01-06T22:31:10.391Z,13.00
2019-01-06T22:34:12.574Z,10.10
2019-01-06T22:36:57.753Z,12.98
2019-01-06T22:39:43.365Z,12.98
2019-01-06T22:42:30.288Z,11.78
2019-01-06T22:45:17.364Z,11.03
2019-01-06T22:48:19.142Z,11.60
2019-01-06T22:51:21.213Z,9.60
2019-01-06T22:54:06.787Z,9.23
2019-01-06T22:56:52.333Z,7.35
2019-01-06T22:59:38.047Z,7.50
2019-01-06T23:02:43.387Z,8.75
2019-01-06T23:05:31.717Z,8.70
2019-01-06T23:08:17.461Z,7.37
2019-01-06T23:11:13.622Z,7.53
2019-01-06T23:14:18.770Z,6.70
2019-01-06T23:17:08.453Z,4.65
2019-01-06T23:19:52.311Z,3.65
2019-01-06T23:22:37.952Z,3.70
2019-01-06T23:25:31.016Z,4.20
2019-01-06T23:28:16.411Z,3.67
2019-01-06T23:31:09.381Z,4.92
2019-01-06T23:34:08.428Z,3.17
2019-01-06T23:36:54.027Z,38.33
2019-01-06T23:39:39.255Z,15.93
2019-01-06T23:42:35.430Z,3.10
2019-01-06T23:45:21.187Z,2.80
2019-01-06T23:48:17.320Z,4.85
2019-01-06T23:51:02.537Z,2.55
2019-01-06T23:53:55.097Z,21.25
2019-01-06T23:56:54.290Z,26.57
2019-01-06T23:59:59.826Z,12.53
